createdAt,value
2022-10-23T00:01:48.609Z,45.60
2022-10-23T00:04:19.448Z,43.33
2022-10-23T00:06:47.787Z,41.70
2022-10-23T00:09:17.808Z,46.30
2022-10-23T00:11:47.915Z,43.38
2022-10-23T00:14:16.636Z,44.92
2022-10-23T00:16:43.801Z,45.90
2022-10-23T00:19:11.209Z,44.35
2022-10-23T00:21:39.393Z,49.85
2022-10-23T00:26:39.401Z,38.97
2022-10-23T00:29:06.832Z,44.08
2022-10-23T00:31:34.141Z,48.38
2022-10-23T00:34:01.400Z,43.97
2022-10-23T00:36:28.543Z,41.63
2022-10-23T00:38:55.684Z,43.50
2022-10-23T00:41:28.084Z,42.78
2022-10-23T00:44:05.649Z,49.63
2022-10-23T00:46:33.419Z,40.42
2022-10-23T00:49:02.627Z,40.05
2022-10-23T00:51:36.769Z,40.97
2022-10-23T00:54:24.115Z,37.40
2022-10-23T00:56:57.355Z,38.13
2022-10-23T00:59:24.804Z,42.03
2022-10-23T01:01:52.298Z,42.47
2022-10-23T01:04:19.800Z,37.28
2022-10-23T01:06:58.865Z,36.50
2022-10-23T01:09:43.624Z,33.65
2022-10-23T01:12:40.553Z,39.20
2022-10-23T01:15:17.030Z,35.90
2022-10-23T01:17:57.838Z,36.45
2022-10-23T01:20:40.609Z,27.70
2022-10-23T01:23:32.301Z,30.70
2022-10-23T01:26:22.665Z,33.17
2022-10-23T01:29:05.016Z,24.65
2022-10-23T01:31:45.004Z,30.30
2022-10-23T01:34:22.449Z,25.27
2022-10-23T01:36:52.613Z,27.13
2022-10-23T01:39:27.535Z,24.30
2022-10-23T01:42:08.554Z,30.17
2022-10-23T01:44:46.772Z,27.83
2022-10-23T01:47:18.599Z,30.35
2022-10-23T01:49:47.726Z,30.13
2022-10-23T01:52:16.507Z,33.53
2022-10-23T01:54:46.412Z,28.30
2022-10-23T01:57:16.804Z,35.60
2022-10-23T01:59:52.172Z,31.17
2022-10-23T02:02:22.771Z,31.92
2022-10-23T02:05:10.821Z,31.77
2022-10-23T02:07:38.150Z,26.67
2022-10-23T02:10:07.540Z,27.38
2022-10-23T02:12:37.401Z,29.80
2022-10-23T02:15:30.129Z,30.27
2022-10-23T02:18:07.508Z,26.15
2022-10-23T02:23:35.877Z,35.05
2022-10-23T02:26:13.079Z,40.53
2022-10-23T02:28:49.039Z,39.40
2022-10-23T02:31:19.759Z,30.58
2022-10-23T02:33:47.561Z,34.42
2022-10-23T02:36:16.419Z,30.83
2022-10-23T02:38:44.434Z,37.92
2022-10-23T02:41:22.526Z,30.40
2022-10-23T02:44:14.813Z,35.92
2022-10-23T02:46:44.524Z,41.88
2022-10-23T02:49:14.821Z,32.65
2022-10-23T02:51:56.106Z,32.15
2022-10-23T02:54:39.972Z,34.42
2022-10-23T02:57:30.634Z,33.92
2022-10-23T03:00:16.840Z,26.92
2022-10-23T03:03:02.623Z,31.00
2022-10-23T03:05:35.120Z,34.85
2022-10-23T03:08:10.170Z,30.75
2022-10-23T03:10:37.686Z,28.98
2022-10-23T03:13:04.680Z,37.45
2022-10-23T03:15:31.897Z,37.88
2022-10-23T03:17:58.779Z,32.83
2022-10-23T03:20:26.224Z,52.97
2022-10-23T03:22:53.136Z,39.63
2022-10-23T03:25:20.902Z,36.33
2022-10-23T03:27:47.829Z,54.53
2022-10-23T03:30:15.986Z,46.47
2022-10-23T03:32:43.304Z,43.03
2022-10-23T03:35:10.690Z,50.60
2022-10-23T03:37:37.588Z,58.00
2022-10-23T03:40:05.250Z,49.83
2022-10-23T03:42:32.098Z,52.65
2022-10-23T03:44:59.299Z,56.13
2022-10-23T03:47:26.293Z,55.17
2022-10-23T03:49:53.371Z,55.65
2022-10-23T03:52:20.349Z,63.70
2022-10-23T03:54:47.511Z,49.25
2022-10-23T03:57:14.399Z,59.60
2022-10-23T03:59:41.767Z,52.05
2022-10-23T04:02:08.818Z,47.42
2022-10-23T04:04:36.018Z,43.13
2022-10-23T04:07:02.977Z,45.47
2022-10-23T04:09:30.106Z,47.92
2022-10-23T04:11:57.162Z,45.88
2022-10-23T04:14:25.355Z,38.25
2022-10-23T04:16:52.385Z,48.35
2022-10-23T04:19:19.977Z,42.95
2022-10-23T04:21:47.002Z,39.85
2022-10-23T04:24:14.487Z,39.60
2022-10-23T04:26:41.601Z,39.67
2022-10-23T04:29:08.700Z,37.88
2022-10-23T04:31:35.621Z,40.20
2022-10-23T04:34:02.737Z,43.97
2022-10-23T04:36:29.779Z,39.33
2022-10-23T04:38:57.162Z,38.90
2022-10-23T04:41:24.109Z,46.40
2022-10-23T04:43:51.478Z,40.40
2022-10-23T04:46:18.431Z,40.28
2022-10-23T04:48:45.520Z,39.15
2022-10-23T04:51:12.533Z,43.92
2022-10-23T04:53:39.701Z,44.00
2022-10-23T04:56:06.922Z,47.30
2022-10-23T04:58:33.812Z,44.10
2022-10-23T05:01:00.969Z,38.80
2022-10-23T05:03:27.951Z,51.90
2022-10-23T05:05:55.875Z,36.50
2022-10-23T05:08:23.648Z,47.55
2022-10-23T05:10:50.961Z,43.50
2022-10-23T05:13:19.973Z,39.28
2022-10-23T05:15:52.038Z,46.40
2022-10-23T05:18:35.702Z,52.67
2022-10-23T05:21:13.470Z,37.20
2022-10-23T05:23:43.814Z,46.92
2022-10-23T05:26:10.768Z,42.47
2022-10-23T05:28:37.819Z,49.75
2022-10-23T05:31:06.273Z,42.92
2022-10-23T05:33:34.612Z,35.72
2022-10-23T05:36:02.172Z,45.13
2022-10-23T05:38:32.743Z,50.22
2022-10-23T05:40:59.730Z,40.38
2022-10-23T05:43:27.383Z,47.45
2022-10-23T05:45:54.411Z,39.10
2022-10-23T05:48:33.929Z,43.28
2022-10-23T05:51:07.810Z,42.70
2022-10-23T05:56:06.964Z,36.50
2022-10-23T05:58:34.190Z,41.17
2022-10-23T06:01:06.232Z,45.90
2022-10-23T06:03:33.697Z,37.83
2022-10-23T06:06:00.643Z,37.25
2022-10-23T06:08:27.795Z,44.35
2022-10-23T06:10:54.771Z,48.80
2022-10-23T06:13:22.270Z,41.25
2022-10-23T06:15:49.271Z,52.72
2022-10-23T06:18:16.427Z,41.72
2022-10-23T06:20:43.330Z,41.95
2022-10-23T06:23:10.496Z,51.20
2022-10-23T06:25:37.443Z,42.90
2022-10-23T06:28:04.557Z,43.45
2022-10-23T06:30:31.573Z,49.25
2022-10-23T06:33:01.111Z,40.55
2022-10-23T06:35:30.288Z,45.35
2022-10-23T06:37:57.353Z,50.38
2022-10-23T06:40:24.201Z,46.55
2022-10-23T06:42:51.274Z,41.10
2022-10-23T06:45:18.214Z,36.95
2022-10-23T06:47:45.666Z,38.22
2022-10-23T06:50:15.380Z,36.78
2022-10-23T06:52:46.910Z,38.70
2022-10-23T06:55:15.111Z,32.47
2022-10-23T06:57:43.205Z,32.58
2022-10-23T07:00:11.349Z,33.72
2022-10-23T07:02:38.362Z,39.50
2022-10-23T07:05:08.724Z,39.47
2022-10-23T07:07:38.266Z,44.80
2022-10-23T07:10:06.145Z,37.60
2022-10-23T07:12:33.161Z,40.35
2022-10-23T07:15:00.197Z,41.20
2022-10-23T07:17:29.312Z,38.10
2022-10-23T07:19:56.446Z,39.03
2022-10-23T07:22:23.356Z,32.15
2022-10-23T07:24:50.436Z,30.90
2022-10-23T07:27:17.349Z,35.47
2022-10-23T07:29:44.513Z,43.75
2022-10-23T07:32:11.484Z,40.33
2022-10-23T07:34:38.964Z,38.47
2022-10-23T07:37:05.838Z,47.28
2022-10-23T07:39:33.002Z,45.03
2022-10-23T07:41:59.971Z,48.45
2022-10-23T07:44:27.901Z,40.08
2022-10-23T07:46:54.890Z,41.55
2022-10-23T07:49:22.067Z,42.85
2022-10-23T07:51:51.439Z,43.17
2022-10-23T07:54:19.165Z,45.45
2022-10-23T07:56:46.082Z,43.65
2022-10-23T07:59:13.814Z,39.00
2022-10-23T08:01:45.848Z,38.40
2022-10-23T08:04:12.846Z,40.78
2022-10-23T08:06:40.096Z,42.45
2022-10-23T08:09:07.240Z,38.90
2022-10-23T08:11:35.887Z,38.83
2022-10-23T08:14:04.726Z,35.95
2022-10-23T08:16:36.909Z,40.90
2022-10-23T08:19:06.032Z,45.28
2022-10-23T08:21:34.097Z,40.90
2022-10-23T08:24:01.314Z,44.10
2022-10-23T08:26:29.540Z,43.33
2022-10-23T08:28:58.387Z,42.83
2022-10-23T08:31:26.156Z,38.45
2022-10-23T08:33:53.188Z,72.53
2022-10-23T08:36:25.736Z,75.00
2022-10-23T08:38:55.683Z,59.50
2022-10-23T08:41:31.060Z,67.95
2022-10-23T08:44:08.274Z,104.10
2022-10-23T08:46:44.651Z,49.60
2022-10-23T08:49:33.465Z,66.10
2022-10-23T08:52:08.103Z,61.47
2022-10-23T08:54:55.030Z,53.25
2022-10-23T08:57:26.298Z,86.57
2022-10-23T09:00:00.982Z,63.60
2022-10-23T09:02:42.589Z,72.50
2022-10-23T09:05:44.667Z,48.53
2022-10-23T09:08:42.157Z,36.63
2022-10-23T09:11:16.456Z,43.70
2022-10-23T09:14:29.748Z,36.28
2022-10-23T09:17:16.235Z,36.28
2022-10-23T09:19:45.900Z,44.47
2022-10-23T09:22:13.539Z,34.28
2022-10-23T09:24:43.575Z,32.08
2022-10-23T09:27:17.025Z,32.30
2022-10-23T09:29:55.658Z,32.55
2022-10-23T09:32:37.714Z,35.15
2022-10-23T09:35:06.298Z,32.63
2022-10-23T09:37:36.047Z,35.05
2022-10-23T09:40:43.528Z,38.05
2022-10-23T09:43:16.243Z,35.45
2022-10-23T09:45:44.016Z,41.95
2022-10-23T09:48:17.606Z,32.67
2022-10-23T09:50:55.521Z,33.70
2022-10-23T09:53:38.307Z,35.03
2022-10-23T09:56:27.285Z,34.75
2022-10-23T09:59:19.245Z,32.80
2022-10-23T10:01:50.477Z,34.42
2022-10-23T10:04:31.232Z,31.65
2022-10-23T10:06:59.555Z,29.15
2022-10-23T10:09:26.681Z,31.10
2022-10-23T10:12:19.588Z,25.67
2022-10-23T10:14:46.490Z,28.30
2022-10-23T10:17:32.552Z,29.80
2022-10-23T10:20:06.963Z,28.48
2022-10-23T10:22:49.699Z,29.23
2022-10-23T10:25:28.474Z,26.50
2022-10-23T10:28:16.670Z,33.17
2022-10-23T10:31:10.665Z,26.50
2022-10-23T10:33:56.457Z,24.98
2022-10-23T10:37:02.939Z,26.98
2022-10-23T10:39:42.382Z,20.40
2022-10-23T10:42:31.494Z,20.98
2022-10-23T10:45:13.679Z,26.67
2022-10-23T10:48:02.403Z,34.38
2022-10-23T10:51:01.275Z,29.42
2022-10-23T10:53:41.273Z,24.83
2022-10-23T10:56:12.668Z,25.75
2022-10-23T10:58:46.609Z,26.73
2022-10-23T11:01:38.201Z,26.33
2022-10-23T11:04:13.753Z,25.63
2022-10-23T11:06:44.654Z,19.83
2022-10-23T11:09:25.940Z,17.40
2022-10-23T11:11:53.280Z,17.10
2022-10-23T11:14:33.149Z,24.52
2022-10-23T11:17:17.024Z,29.48
2022-10-23T11:19:48.425Z,28.40
2022-10-23T11:22:18.681Z,32.80
2022-10-23T11:25:08.718Z,23.90
2022-10-23T11:27:35.779Z,24.52
2022-10-23T11:30:40.149Z,24.83
2022-10-23T11:33:58.051Z,22.83
2022-10-23T11:36:50.333Z,24.75
2022-10-23T11:39:20.191Z,33.33
2022-10-23T11:42:15.039Z,23.58
2022-10-23T11:44:51.273Z,24.30
2022-10-23T11:47:38.864Z,26.65
2022-10-23T11:50:07.329Z,21.50
2022-10-23T11:53:14.976Z,23.33
2022-10-23T11:56:16.864Z,29.02
2022-10-23T11:58:48.053Z,27.15
2022-10-23T12:01:40.848Z,20.02
2022-10-23T12:04:14.101Z,26.35
2022-10-23T12:06:52.687Z,23.90
2022-10-23T12:09:43.865Z,20.98
2022-10-23T12:12:11.218Z,19.40
2022-10-23T12:14:41.146Z,23.65
2022-10-23T12:17:23.087Z,22.92
2022-10-23T12:19:55.096Z,20.33
2022-10-23T12:22:28.206Z,24.83
2022-10-23T12:25:13.234Z,21.08
2022-10-23T12:27:59.269Z,22.58
2022-10-23T12:30:41.337Z,28.33
2022-10-23T12:33:08.319Z,31.13
2022-10-23T12:36:07.220Z,27.88
2022-10-23T12:38:42.336Z,25.08
2022-10-23T12:41:19.251Z,23.35
2022-10-23T12:43:54.531Z,32.05
2022-10-23T12:46:39.568Z,36.63
2022-10-23T12:49:18.695Z,31.65
2022-10-23T12:51:53.995Z,31.08
2022-10-23T12:54:21.949Z,27.05
2022-10-23T12:56:49.693Z,20.08
2022-10-23T12:59:26.462Z,26.52
2022-10-23T13:01:54.967Z,27.38
2022-10-23T13:04:36.618Z,35.55
2022-10-23T13:07:04.336Z,22.80
2022-10-23T13:09:42.584Z,25.65
2022-10-23T13:12:20.703Z,22.50
2022-10-23T13:15:06.240Z,19.73
2022-10-23T13:17:44.126Z,22.45
2022-10-23T13:20:26.543Z,25.52
2022-10-23T13:23:00.477Z,22.37
2022-10-23T13:25:29.465Z,23.55
2022-10-23T13:28:08.619Z,25.55
2022-10-23T13:30:42.834Z,20.88
2022-10-23T13:33:26.033Z,27.83
2022-10-23T13:36:06.324Z,25.08
2022-10-23T13:38:33.757Z,16.77
2022-10-23T13:41:02.938Z,23.95
2022-10-23T13:43:31.943Z,18.67
2022-10-23T13:46:00.307Z,18.83
2022-10-23T13:48:28.093Z,16.70
2022-10-23T13:51:06.246Z,20.67
2022-10-23T13:53:33.456Z,12.07
2022-10-23T13:56:00.402Z,14.02
2022-10-23T13:58:27.648Z,15.82
2022-10-23T14:00:54.792Z,17.15
2022-10-23T14:03:24.378Z,14.73
2022-10-23T14:05:52.038Z,15.77
2022-10-23T14:08:19.439Z,19.45
2022-10-23T14:10:46.559Z,15.38
2022-10-23T14:13:13.831Z,14.07
2022-10-23T14:15:40.834Z,39.28
2022-10-23T14:18:08.585Z,21.33
2022-10-23T14:20:38.123Z,25.02
2022-10-23T14:23:05.554Z,26.23
2022-10-23T14:25:32.454Z,21.92
2022-10-23T14:27:59.675Z,16.38
2022-10-23T14:30:26.667Z,16.95
2022-10-23T14:32:54.125Z,15.05
2022-10-23T14:35:21.260Z,16.15
2022-10-23T14:37:48.486Z,17.38
2022-10-23T14:40:15.438Z,21.23
2022-10-23T14:42:42.878Z,23.88
2022-10-23T14:45:10.330Z,20.40
2022-10-23T14:47:38.977Z,13.73
2022-10-23T14:50:06.545Z,17.20
2022-10-23T14:52:33.710Z,15.15
2022-10-23T14:55:01.753Z,16.88
2022-10-23T14:57:29.374Z,16.30
2022-10-23T14:59:56.434Z,14.80
2022-10-23T15:02:23.543Z,19.50
2022-10-23T15:04:50.491Z,16.63
2022-10-23T15:07:17.773Z,13.93
2022-10-23T15:09:44.747Z,14.07
2022-10-23T15:12:11.868Z,18.73
2022-10-23T15:14:38.816Z,16.17
2022-10-23T15:17:06.366Z,16.77
2022-10-23T15:19:33.417Z,16.58
2022-10-23T15:22:00.562Z,17.63
2022-10-23T15:24:27.471Z,20.08
2022-10-23T15:26:55.003Z,19.42
2022-10-23T15:29:23.002Z,17.45
2022-10-23T15:31:57.000Z,15.75
2022-10-23T15:34:26.859Z,16.80
2022-10-23T15:36:55.276Z,19.13
2022-10-23T15:39:25.578Z,24.30
2022-10-23T15:41:56.176Z,26.35
2022-10-23T15:44:24.980Z,26.92
2022-10-23T15:46:52.177Z,22.02
2022-10-23T15:49:19.881Z,26.83
2022-10-23T15:51:47.033Z,25.05
2022-10-23T15:54:17.162Z,26.58
2022-10-23T15:56:45.496Z,26.27
2022-10-23T15:59:12.951Z,25.00
2022-10-23T16:01:40.580Z,32.28
2022-10-23T16:04:07.631Z,32.28
2022-10-23T16:06:34.758Z,30.50
2022-10-23T16:09:01.830Z,27.02
2022-10-23T16:11:31.659Z,27.20
2022-10-23T16:13:59.975Z,22.52
2022-10-23T16:16:28.224Z,26.80
2022-10-23T16:18:55.383Z,23.17
2022-10-23T16:21:25.854Z,29.35
2022-10-23T16:23:54.576Z,21.17
2022-10-23T16:26:22.715Z,22.40
2022-10-23T16:28:54.045Z,22.60
2022-10-23T16:31:23.273Z,24.65
2022-10-23T16:33:51.769Z,26.38
2022-10-23T16:36:19.521Z,24.70
2022-10-23T16:38:46.532Z,23.20
2022-10-23T16:41:13.656Z,26.90
2022-10-23T16:43:40.780Z,20.98
2022-10-23T16:46:19.661Z,24.88
2022-10-23T16:48:47.253Z,25.33
2022-10-23T16:51:17.679Z,21.67
2022-10-23T16:53:45.759Z,25.38
2022-10-23T16:56:18.083Z,26.83
2022-10-23T16:58:45.315Z,28.85
2022-10-23T17:01:27.621Z,29.92
2022-10-23T17:03:55.961Z,30.55
2022-10-23T17:06:28.885Z,26.85
2022-10-23T17:08:58.456Z,27.13
2022-10-23T17:11:34.898Z,31.17
2022-10-23T17:14:15.229Z,33.38
2022-10-23T17:16:46.756Z,31.33
2022-10-23T17:19:33.030Z,29.90
2022-10-23T17:22:03.882Z,26.75
2022-10-23T17:24:30.943Z,31.38
2022-10-23T17:26:58.287Z,23.10
2022-10-23T17:29:25.286Z,24.77
2022-10-23T17:31:52.522Z,24.30
2022-10-23T17:34:22.126Z,29.33
2022-10-23T17:36:52.292Z,30.33
2022-10-23T17:39:25.850Z,26.13
2022-10-23T17:41:53.530Z,25.30
2022-10-23T17:44:21.040Z,23.17
2022-10-23T17:46:54.005Z,22.75
2022-10-23T17:49:24.230Z,30.63
2022-10-23T17:51:53.992Z,31.83
2022-10-23T17:54:21.918Z,40.03
2022-10-23T17:56:49.062Z,39.50
2022-10-23T17:59:19.622Z,36.42
2022-10-23T18:01:48.372Z,39.60
2022-10-23T18:04:20.739Z,40.78
2022-10-23T18:06:50.655Z,38.97
2022-10-23T18:09:18.138Z,37.45
2022-10-23T18:11:48.213Z,32.35
2022-10-23T18:14:17.278Z,30.05
2022-10-23T18:16:46.086Z,33.85
2022-10-23T18:19:14.692Z,37.15
2022-10-23T18:21:42.123Z,34.72
2022-10-23T18:24:09.923Z,31.90
2022-10-23T18:26:39.204Z,32.30
2022-10-23T18:29:10.111Z,32.22
2022-10-23T18:31:37.990Z,32.90
2022-10-23T18:34:07.773Z,31.33
2022-10-23T18:36:38.635Z,49.85
2022-10-23T18:39:08.070Z,40.00
2022-10-23T18:41:41.445Z,42.33
2022-10-23T18:44:10.236Z,40.47
2022-10-23T18:46:37.687Z,37.72
2022-10-23T18:49:05.215Z,36.25
2022-10-23T18:51:34.687Z,48.55
2022-10-23T18:54:05.697Z,65.90
2022-10-23T18:56:34.254Z,55.25
2022-10-23T18:59:02.648Z,58.78
2022-10-23T19:01:30.335Z,53.45
2022-10-23T19:03:59.401Z,51.45
2022-10-23T19:06:29.135Z,46.83
2022-10-23T19:08:56.089Z,46.92
2022-10-23T19:11:25.837Z,42.58
2022-10-23T19:13:52.773Z,54.72
2022-10-23T19:16:29.137Z,57.08
2022-10-23T19:19:01.726Z,52.88
2022-10-23T19:24:02.506Z,44.67
2022-10-23T19:26:31.090Z,41.00
2022-10-23T19:28:58.514Z,45.83
2022-10-23T19:31:26.946Z,55.60
2022-10-23T19:33:54.126Z,47.67
2022-10-23T19:36:23.382Z,45.75
2022-10-23T19:38:51.041Z,42.28
2022-10-23T19:41:18.853Z,47.53
2022-10-23T19:43:45.996Z,45.92
2022-10-23T19:46:13.202Z,36.65
2022-10-23T19:48:44.996Z,37.85
2022-10-23T19:51:13.548Z,40.87
2022-10-23T19:53:42.118Z,42.55
2022-10-23T19:56:11.833Z,40.40
2022-10-23T19:58:39.257Z,34.83
2022-10-23T20:01:17.508Z,36.33
2022-10-23T20:03:50.814Z,48.78
2022-10-23T20:06:23.777Z,39.75
2022-10-23T20:08:50.933Z,38.97
2022-10-23T20:11:23.843Z,37.55
2022-10-23T20:13:52.124Z,41.60
2022-10-23T20:16:35.027Z,42.78
2022-10-23T20:19:07.106Z,38.60
2022-10-23T20:21:39.750Z,43.00
2022-10-23T20:24:07.776Z,36.78
2022-10-23T20:26:36.119Z,38.00
2022-10-23T20:29:03.502Z,52.70
2022-10-23T20:31:30.709Z,42.90
2022-10-23T20:33:57.703Z,44.17
2022-10-23T20:36:30.563Z,42.47
2022-10-23T20:38:59.230Z,42.00
2022-10-23T20:41:28.511Z,40.45
2022-10-23T20:43:56.232Z,42.40
2022-10-23T20:46:24.086Z,44.92
2022-10-23T20:48:51.598Z,47.58
2022-10-23T20:51:21.840Z,40.38
2022-10-23T20:53:49.512Z,45.15
2022-10-23T20:56:24.216Z,48.38
2022-10-23T20:58:51.217Z,37.70
2022-10-23T21:01:18.707Z,41.22
2022-10-23T21:03:51.100Z,48.70
2022-10-23T21:06:19.421Z,44.92
2022-10-23T21:08:46.555Z,38.42
2022-10-23T21:11:16.028Z,46.75
2022-10-23T21:13:44.159Z,41.95
2022-10-23T21:16:26.112Z,37.72
2022-10-23T21:18:56.889Z,37.88
2022-10-23T21:21:25.044Z,37.83
2022-10-23T21:23:53.672Z,40.15
2022-10-23T21:26:22.761Z,33.42
2022-10-23T21:28:56.289Z,39.20
2022-10-23T21:31:34.182Z,37.97
2022-10-23T21:34:01.544Z,41.50
2022-10-23T21:36:31.031Z,38.50
2022-10-23T21:39:01.810Z,38.97
2022-10-23T21:41:34.181Z,34.55
2022-10-23T21:44:03.824Z,42.67
2022-10-23T21:46:34.133Z,36.78
2022-10-23T21:49:01.354Z,40.13
2022-10-23T21:51:37.446Z,40.58
2022-10-23T21:54:06.981Z,33.47
2022-10-23T21:56:36.600Z,35.03
2022-10-23T22:01:40.734Z,41.75
2022-10-23T22:04:08.102Z,42.63
2022-10-23T22:06:35.188Z,36.08
2022-10-23T22:09:03.045Z,36.10
2022-10-23T22:11:30.195Z,42.30
2022-10-23T22:13:58.475Z,30.20
2022-10-23T22:16:26.620Z,36.70
2022-10-23T22:18:55.967Z,33.55
2022-10-23T22:21:26.591Z,37.58
2022-10-23T22:23:58.525Z,39.05
2022-10-23T22:26:32.841Z,37.47
2022-10-23T22:29:06.560Z,36.10
2022-10-23T22:31:35.217Z,34.75
2022-10-23T22:34:13.286Z,36.85
2022-10-23T22:36:51.570Z,35.10
2022-10-23T22:39:18.657Z,38.85
2022-10-23T22:41:47.518Z,37.10
2022-10-23T22:44:15.472Z,40.13
2022-10-23T22:46:42.768Z,41.45
2022-10-23T22:49:10.046Z,35.95
2022-10-23T22:51:39.069Z,39.08
2022-10-23T22:54:06.840Z,34.50
2022-10-23T22:56:34.507Z,35.97
2022-10-23T22:59:01.485Z,34.05
2022-10-23T23:01:41.959Z,36.25
2022-10-23T23:04:26.034Z,36.78
2022-10-23T23:06:56.206Z,28.85
2022-10-23T23:09:23.194Z,36.47
2022-10-23T23:11:52.553Z,37.40
2022-10-23T23:14:23.497Z,33.28
2022-10-23T23:16:54.638Z,31.65
2022-10-23T23:19:23.280Z,36.60
2022-10-23T23:21:50.714Z,34.90
2022-10-23T23:24:17.626Z,29.65
2022-10-23T23:26:44.739Z,36.08
2022-10-23T23:29:12.051Z,32.15
2022-10-23T23:31:39.736Z,28.77
2022-10-23T23:34:06.713Z,30.20
2022-10-23T23:36:34.169Z,35.47
2022-10-23T23:39:01.875Z,33.30
2022-10-23T23:41:29.339Z,34.55
2022-10-23T23:43:57.916Z,32.05
2022-10-23T23:46:25.806Z,36.58
2022-10-23T23:48:52.735Z,28.73
2022-10-23T23:51:22.770Z,36.08
2022-10-23T23:53:50.617Z,32.05
2022-10-23T23:56:18.468Z,34.10
2022-10-23T23:58:45.389Z,38.50
